createdAt,value
2022-12-27T00:00:30.433Z,0.90
2022-12-27T00:02:57.580Z,1.10
2022-12-27T00:05:24.456Z,0.83
2022-12-27T00:07:51.327Z,0.97
2022-12-27T00:10:18.248Z,1.10
2022-12-27T00:12:45.131Z,1.03
2022-12-27T00:15:13.418Z,1.03
2022-12-27T00:17:40.271Z,1.00
2022-12-27T00:20:11.373Z,0.90
2022-12-27T00:22:39.091Z,0.80
2022-12-27T00:25:06.755Z,0.90
2022-12-27T00:27:33.596Z,0.90
2022-12-27T00:30:01.402Z,1.00
2022-12-27T00:32:29.715Z,0.90
2022-12-27T00:34:56.547Z,0.83
2022-12-27T00:37:23.409Z,1.10
2022-12-27T00:39:50.366Z,1.10
2022-12-27T00:42:17.206Z,1.30
2022-12-27T00:44:44.167Z,0.70
2022-12-27T00:47:11.130Z,0.90
2022-12-27T00:49:39.309Z,1.10
2022-12-27T00:52:06.227Z,0.83
2022-12-27T00:54:33.179Z,0.93
2022-12-27T00:57:00.057Z,0.83
2022-12-27T00:59:26.923Z,0.90
2022-12-27T01:01:54.079Z,0.70
2022-12-27T01:04:21.028Z,0.70
2022-12-27T01:06:49.323Z,1.00
2022-12-27T01:09:16.245Z,0.87
2022-12-27T01:11:43.129Z,0.80
2022-12-27T01:14:10.566Z,0.60
2022-12-27T01:16:38.447Z,0.70
2022-12-27T01:19:05.366Z,1.00
2022-12-27T01:21:32.420Z,0.70
2022-12-27T01:24:00.702Z,0.90
2022-12-27T01:26:28.155Z,0.50
2022-12-27T01:28:55.172Z,0.77
2022-12-27T01:31:24.758Z,0.93
2022-12-27T01:33:55.066Z,0.80
2022-12-27T01:36:24.076Z,0.73
2022-12-27T01:38:51.016Z,0.90
2022-12-27T01:41:40.268Z,1.00
2022-12-27T01:44:51.057Z,1.00
2022-12-27T01:47:27.047Z,1.30
2022-12-27T01:50:04.872Z,1.00
2022-12-27T01:52:36.372Z,0.70
2022-12-27T01:55:09.960Z,0.80
2022-12-27T01:57:38.647Z,0.90
2022-12-27T02:00:06.854Z,0.80
2022-12-27T02:02:34.425Z,0.80
2022-12-27T02:05:01.609Z,1.00
2022-12-27T02:07:38.576Z,0.73
2022-12-27T02:10:06.320Z,0.80
2022-12-27T02:12:33.218Z,0.90
2022-12-27T02:15:03.049Z,1.40
2022-12-27T02:17:31.655Z,1.00
2022-12-27T02:20:05.716Z,0.80
2022-12-27T02:23:24.808Z,0.80
2022-12-27T02:26:33.879Z,0.83
2022-12-27T02:29:15.478Z,1.00
2022-12-27T02:31:48.832Z,0.90
2022-12-27T02:34:22.338Z,0.83
2022-12-27T02:36:53.093Z,0.80
2022-12-27T02:39:22.728Z,0.90
2022-12-27T02:42:09.123Z,0.63
2022-12-27T02:44:56.144Z,0.80
2022-12-27T02:47:43.054Z,0.77
2022-12-27T02:50:30.769Z,0.90
2022-12-27T02:53:08.196Z,0.80
2022-12-27T02:56:08.861Z,0.70
2022-12-27T02:58:45.561Z,0.80
2022-12-27T03:01:39.379Z,0.63
2022-12-27T03:04:24.549Z,0.80
2022-12-27T03:07:03.200Z,1.03
2022-12-27T03:10:01.171Z,0.70
2022-12-27T03:13:02.707Z,0.80
2022-12-27T03:15:56.995Z,0.80
2022-12-27T03:18:47.460Z,0.80
2022-12-27T03:21:38.179Z,0.73
2022-12-27T03:24:25.747Z,0.70
2022-12-27T03:26:54.071Z,0.80
2022-12-27T03:29:41.282Z,0.70
2022-12-27T03:32:29.572Z,0.90
2022-12-27T03:35:03.741Z,0.80
2022-12-27T03:37:53.063Z,1.07
2022-12-27T03:40:27.408Z,0.80
2022-12-27T03:43:13.405Z,0.70
2022-12-27T03:46:13.867Z,0.90
2022-12-27T03:48:56.801Z,0.83
2022-12-27T03:51:27.998Z,0.70
2022-12-27T03:54:00.855Z,1.00
2022-12-27T03:56:28.558Z,1.00
2022-12-27T03:58:55.960Z,1.20
2022-12-27T04:01:22.926Z,0.90
2022-12-27T04:03:49.824Z,1.20
2022-12-27T04:06:16.814Z,1.17
2022-12-27T04:09:03.412Z,1.00
2022-12-27T04:11:48.827Z,0.80
2022-12-27T04:14:35.400Z,0.77
2022-12-27T04:17:20.755Z,0.90
2022-12-27T04:20:06.462Z,1.00
2022-12-27T04:22:52.069Z,0.97
2022-12-27T04:25:38.945Z,0.87
2022-12-27T04:28:24.306Z,0.90
2022-12-27T04:31:09.798Z,1.20
2022-12-27T04:33:55.258Z,1.17
2022-12-27T04:36:22.091Z,1.50
2022-12-27T04:38:48.953Z,1.83
2022-12-27T04:41:35.556Z,2.30
2022-12-27T04:44:20.898Z,1.93
2022-12-27T04:47:06.527Z,1.80
2022-12-27T04:49:53.420Z,0.80
2022-12-27T04:52:41.012Z,1.17
2022-12-27T04:55:17.230Z,1.07
2022-12-27T04:57:45.475Z,1.23
2022-12-27T05:00:32.543Z,1.37
2022-12-27T05:03:00.619Z,1.47
2022-12-27T05:05:27.751Z,1.30
2022-12-27T05:08:14.760Z,1.30
2022-12-27T05:11:00.327Z,1.57
2022-12-27T05:13:47.275Z,1.50
2022-12-27T05:16:14.576Z,1.40
2022-12-27T05:18:41.434Z,1.67
2022-12-27T05:21:08.246Z,1.30
2022-12-27T05:23:54.271Z,1.40
2022-12-27T05:26:22.933Z,1.10
2022-12-27T05:28:54.354Z,1.07
2022-12-27T05:31:22.727Z,1.37
2022-12-27T05:33:50.593Z,1.80
2022-12-27T05:36:17.964Z,1.90
2022-12-27T05:38:44.809Z,1.80
2022-12-27T05:41:12.320Z,1.50
2022-12-27T05:43:39.121Z,1.73
2022-12-27T05:46:09.539Z,2.10
2022-12-27T05:48:36.972Z,2.27
2022-12-27T05:51:07.793Z,2.50
2022-12-27T05:53:34.742Z,1.97
2022-12-27T05:56:02.003Z,2.17
2022-12-27T05:58:29.482Z,2.40
2022-12-27T06:00:57.125Z,3.90
2022-12-27T06:03:25.421Z,3.60
2022-12-27T06:05:52.413Z,3.70
2022-12-27T06:08:19.372Z,3.93
2022-12-27T06:10:46.189Z,3.73
2022-12-27T06:13:13.176Z,3.80
2022-12-27T06:15:39.989Z,3.17
2022-12-27T06:18:06.902Z,3.43
2022-12-27T06:20:35.625Z,2.57
2022-12-27T06:23:02.451Z,2.20
2022-12-27T06:25:29.355Z,2.20
2022-12-27T06:27:56.170Z,1.83
2022-12-27T06:30:23.047Z,1.40
2022-12-27T06:32:49.965Z,1.27
2022-12-27T06:35:17.009Z,1.30
2022-12-27T06:37:45.226Z,1.50
2022-12-27T06:40:12.476Z,1.30
2022-12-27T06:42:39.329Z,1.50
2022-12-27T06:45:09.336Z,1.67
2022-12-27T06:47:36.636Z,1.77
2022-12-27T06:50:04.386Z,1.30
2022-12-27T06:52:31.316Z,1.50
2022-12-27T06:54:59.598Z,1.40
2022-12-27T06:57:26.444Z,1.60
2022-12-27T06:59:54.268Z,1.90
2022-12-27T07:02:21.414Z,1.77
2022-12-27T07:04:48.334Z,2.43
2022-12-27T07:07:16.073Z,2.30
2022-12-27T07:09:43.001Z,2.07
2022-12-27T07:12:11.196Z,1.80
2022-12-27T07:14:38.010Z,2.40
2022-12-27T07:17:04.953Z,1.83
2022-12-27T07:19:31.823Z,2.70
2022-12-27T07:21:58.703Z,2.80
2022-12-27T07:24:25.592Z,2.73
2022-12-27T07:26:52.511Z,2.83
2022-12-27T07:29:20.794Z,2.90
2022-12-27T07:31:47.785Z,2.83
2022-12-27T07:34:14.688Z,2.47
2022-12-27T07:36:41.913Z,2.80
2022-12-27T07:39:09.534Z,2.50
2022-12-27T07:41:36.947Z,2.23
2022-12-27T07:44:04.606Z,2.10
2022-12-27T07:46:33.185Z,2.37
2022-12-27T07:49:00.599Z,2.20
2022-12-27T07:51:28.456Z,2.00
2022-12-27T07:53:55.422Z,1.57
2022-12-27T07:56:26.659Z,1.60
2022-12-27T07:58:55.659Z,1.60
2022-12-27T08:01:24.080Z,1.73
2022-12-27T08:03:52.557Z,1.60
2022-12-27T08:06:23.041Z,1.67
2022-12-27T08:08:51.262Z,1.50
2022-12-27T08:11:18.183Z,1.50
2022-12-27T08:13:45.069Z,1.60
2022-12-27T08:16:17.067Z,2.00
2022-12-27T08:18:44.169Z,2.00
2022-12-27T08:21:12.577Z,2.10
2022-12-27T08:23:39.601Z,1.90
2022-12-27T08:26:07.706Z,1.90
2022-12-27T08:28:34.781Z,2.10
2022-12-27T08:31:02.011Z,1.90
2022-12-27T08:33:29.158Z,1.90
2022-12-27T08:35:58.424Z,2.27
2022-12-27T08:38:26.631Z,1.97
2022-12-27T08:40:53.653Z,1.83
2022-12-27T08:43:20.549Z,2.10
2022-12-27T08:45:47.443Z,1.93
2022-12-27T08:48:14.878Z,2.10
2022-12-27T08:50:41.760Z,2.07
2022-12-27T08:53:09.754Z,2.10
2022-12-27T08:55:37.919Z,2.10
2022-12-27T08:58:12.207Z,2.00
2022-12-27T09:00:42.725Z,1.60
2022-12-27T09:03:09.763Z,1.67
2022-12-27T09:05:41.403Z,2.00
2022-12-27T09:08:09.207Z,1.77
2022-12-27T09:10:37.615Z,1.80
2022-12-27T09:13:04.439Z,1.90
2022-12-27T09:15:31.385Z,1.90
2022-12-27T09:17:58.948Z,2.00
2022-12-27T09:20:25.881Z,1.83
2022-12-27T09:22:52.724Z,2.00
2022-12-27T09:25:19.570Z,1.63
2022-12-27T09:27:47.846Z,1.60
2022-12-27T09:30:14.797Z,1.30
2022-12-27T09:32:41.644Z,1.63
2022-12-27T09:35:09.124Z,1.63
2022-12-27T09:37:36.354Z,1.50
2022-12-27T09:40:03.450Z,1.40
2022-12-27T09:43:02.649Z,1.47
2022-12-27T09:45:38.292Z,1.47
2022-12-27T09:48:11.793Z,1.63
2022-12-27T09:50:47.436Z,1.37
2022-12-27T09:53:17.742Z,1.70
2022-12-27T09:55:47.928Z,1.30
2022-12-27T09:58:31.161Z,1.30
2022-12-27T10:00:59.500Z,1.20
2022-12-27T10:03:28.195Z,1.20
2022-12-27T10:06:05.260Z,1.10
2022-12-27T10:08:43.453Z,1.17
2022-12-27T10:11:36.267Z,1.30
2022-12-27T10:14:15.083Z,1.03
2022-12-27T10:16:50.281Z,1.40
2022-12-27T10:19:28.098Z,1.37
2022-12-27T10:22:03.785Z,1.17
2022-12-27T10:24:39.004Z,1.20
2022-12-27T10:27:14.062Z,1.70
2022-12-27T10:29:41.546Z,1.57
2022-12-27T10:32:13.820Z,1.60
2022-12-27T10:34:40.833Z,1.30
2022-12-27T10:37:09.701Z,1.63
2022-12-27T10:39:38.540Z,1.30
2022-12-27T10:42:14.638Z,1.20
2022-12-27T10:44:41.574Z,1.20
2022-12-27T10:47:10.882Z,1.10
2022-12-27T10:49:39.582Z,1.40
2022-12-27T10:52:16.547Z,1.10
2022-12-27T10:54:52.226Z,1.20
2022-12-27T10:57:26.944Z,1.20
2022-12-27T11:00:16.615Z,1.50
2022-12-27T11:02:52.590Z,1.10
2022-12-27T11:05:25.057Z,1.40
2022-12-27T11:07:52.020Z,1.40
2022-12-27T11:10:21.804Z,1.00
2022-12-27T11:12:57.118Z,1.10
2022-12-27T11:15:24.613Z,1.00
2022-12-27T11:17:55.421Z,1.10
2022-12-27T11:20:24.811Z,1.30
2022-12-27T11:22:53.981Z,0.90
2022-12-27T11:25:21.661Z,1.00
2022-12-27T11:27:51.137Z,0.93
2022-12-27T11:30:24.268Z,1.00
2022-12-27T11:32:53.058Z,1.13
2022-12-27T11:35:21.659Z,1.20
2022-12-27T11:37:49.789Z,1.03
2022-12-27T11:40:26.657Z,1.10
2022-12-27T11:43:01.252Z,1.13
2022-12-27T11:45:35.657Z,1.17
2022-12-27T11:48:10.711Z,1.30
2022-12-27T11:50:48.058Z,1.30
2022-12-27T11:53:55.850Z,1.20
2022-12-27T11:56:26.451Z,1.33
2022-12-27T11:59:26.609Z,1.20
2022-12-27T12:02:22.322Z,1.30
2022-12-27T12:05:46.155Z,1.73
2022-12-27T12:08:46.414Z,1.40
2022-12-27T12:11:29.351Z,1.63
2022-12-27T12:14:12.128Z,1.20
2022-12-27T12:17:19.224Z,1.23
2022-12-27T12:20:14.645Z,1.60
2022-12-27T12:23:01.562Z,1.20
2022-12-27T12:25:56.181Z,1.73
2022-12-27T12:28:59.232Z,1.20
2022-12-27T12:31:40.243Z,1.27
2022-12-27T12:34:22.589Z,1.40
2022-12-27T12:37:02.202Z,1.03
2022-12-27T12:39:48.409Z,1.50
2022-12-27T12:42:21.746Z,1.40
2022-12-27T12:45:30.341Z,1.40
2022-12-27T12:48:24.613Z,1.30
2022-12-27T12:51:04.503Z,1.40
2022-12-27T12:53:47.055Z,1.63
2022-12-27T12:56:32.183Z,1.30
2022-12-27T12:59:12.448Z,1.13
2022-12-27T13:01:54.174Z,1.27
2022-12-27T13:04:37.539Z,1.23
2022-12-27T13:07:22.183Z,1.10
2022-12-27T13:09:58.795Z,1.40
2022-12-27T13:12:30.913Z,1.57
2022-12-27T13:15:24.056Z,1.20
2022-12-27T13:18:02.214Z,1.30
2022-12-27T13:20:50.773Z,1.40
2022-12-27T13:23:30.771Z,1.40
2022-12-27T13:26:05.776Z,1.70
2022-12-27T13:28:41.386Z,1.10
2022-12-27T13:31:22.785Z,1.17
2022-12-27T13:34:01.913Z,1.10
2022-12-27T13:36:39.461Z,1.20
2022-12-27T13:39:31.156Z,1.40
2022-12-27T13:42:19.934Z,1.40
2022-12-27T13:44:59.322Z,1.37
2022-12-27T13:47:52.269Z,1.47
2022-12-27T13:50:41.879Z,1.37
2022-12-27T13:53:33.340Z,1.53
2022-12-27T13:56:51.496Z,1.30
2022-12-27T13:59:13.506Z,1.50
2022-12-27T14:02:02.485Z,1.20
2022-12-27T14:04:59.173Z,1.33
2022-12-27T14:07:38.078Z,1.07
2022-12-27T14:10:28.859Z,0.90
2022-12-27T14:12:58.815Z,1.00
2022-12-27T14:16:10.658Z,1.20
2022-12-27T14:19:08.035Z,2.10
2022-12-27T14:22:01.345Z,1.90
2022-12-27T14:25:33.755Z,1.60
2022-12-27T14:28:32.802Z,1.10
2022-12-27T14:31:43.643Z,1.10
2022-12-27T14:34:43.323Z,1.10
2022-12-27T14:37:37.871Z,1.10
2022-12-27T14:40:36.801Z,1.30
2022-12-27T14:43:41.173Z,1.20
2022-12-27T14:46:35.741Z,1.20
2022-12-27T14:49:34.744Z,1.50
2022-12-27T14:52:33.559Z,1.30
2022-12-27T14:55:43.104Z,1.40
2022-12-27T14:58:26.040Z,1.60
2022-12-27T15:01:05.146Z,1.57
2022-12-27T15:03:49.003Z,2.10
2022-12-27T15:06:29.530Z,2.73
2022-12-27T15:09:07.346Z,2.50
2022-12-27T15:11:55.242Z,2.40
2022-12-27T15:14:47.011Z,2.30
2022-12-27T15:17:25.896Z,1.87
2022-12-27T15:20:14.288Z,1.77
2022-12-27T15:22:53.563Z,1.40
2022-12-27T15:25:29.971Z,1.43
2022-12-27T15:28:06.136Z,1.40
2022-12-27T15:30:45.757Z,1.30
2022-12-27T15:33:22.585Z,1.30
2022-12-27T15:35:54.798Z,1.50
2022-12-27T15:38:41.188Z,1.80
2022-12-27T15:41:27.113Z,1.73
2022-12-27T15:44:09.967Z,1.57
2022-12-27T15:47:12.432Z,1.90
2022-12-27T15:50:27.999Z,2.07
2022-12-27T15:53:15.173Z,2.07
2022-12-27T15:56:09.461Z,2.47
2022-12-27T15:58:36.877Z,2.30
2022-12-27T16:01:28.667Z,2.70
2022-12-27T16:03:58.426Z,6.67
2022-12-27T16:06:50.891Z,7.03
2022-12-27T16:09:37.674Z,6.93
2022-12-27T16:12:09.417Z,4.70
2022-12-27T16:14:38.601Z,4.20
2022-12-27T16:17:33.247Z,3.20
2022-12-27T16:20:11.762Z,3.10
2022-12-27T16:22:41.795Z,2.83
2022-12-27T16:25:31.997Z,2.53
2022-12-27T16:28:05.930Z,2.90
2022-12-27T16:30:48.247Z,2.80
2022-12-27T16:33:31.141Z,3.23
2022-12-27T16:36:16.367Z,3.07
2022-12-27T16:38:54.707Z,3.70
2022-12-27T16:41:39.873Z,3.03
2022-12-27T16:44:21.570Z,3.07
2022-12-27T16:47:02.006Z,3.47
2022-12-27T16:49:55.370Z,3.23
2022-12-27T16:52:40.637Z,3.60
2022-12-27T16:55:25.172Z,3.37
2022-12-27T16:57:52.117Z,3.47
2022-12-27T17:00:35.267Z,3.60
2022-12-27T17:03:27.710Z,3.73
2022-12-27T17:06:30.519Z,3.67
2022-12-27T17:08:44.060Z,3.50
2022-12-27T17:11:28.454Z,5.90
2022-12-27T17:13:59.697Z,7.43
2022-12-27T17:16:28.543Z,5.37
2022-12-27T17:18:57.984Z,4.97
2022-12-27T17:21:30.733Z,4.33
2022-12-27T17:24:01.633Z,4.40
2022-12-27T17:27:03.655Z,4.50
2022-12-27T17:29:49.657Z,4.57
2022-12-27T17:32:27.522Z,4.00
2022-12-27T17:35:04.367Z,3.57
2022-12-27T17:37:39.338Z,4.53
2022-12-27T17:40:21.841Z,4.10
2022-12-27T17:43:17.790Z,4.30
2022-12-27T17:45:50.886Z,3.33
2022-12-27T17:48:25.669Z,4.50
2022-12-27T17:50:56.846Z,4.10
2022-12-27T17:53:43.898Z,3.80
2022-12-27T17:56:36.450Z,4.10
2022-12-27T17:59:06.550Z,4.70
2022-12-27T18:01:36.410Z,2.90
2022-12-27T18:04:05.858Z,2.20
2022-12-27T18:06:35.459Z,2.60
2022-12-27T18:09:04.481Z,4.60
2022-12-27T18:11:32.897Z,3.63
2022-12-27T18:14:00.658Z,3.93
2022-12-27T18:16:35.672Z,5.93
2022-12-27T18:19:03.154Z,4.90
2022-12-27T18:21:30.924Z,3.80
2022-12-27T18:23:58.402Z,3.80
2022-12-27T18:26:35.057Z,3.90
2022-12-27T18:29:02.320Z,4.00
2022-12-27T18:31:33.489Z,4.30
2022-12-27T18:34:03.461Z,5.83
2022-12-27T18:36:32.633Z,5.07
2022-12-27T18:39:02.281Z,3.87
2022-12-27T18:41:37.134Z,3.97
2022-12-27T18:44:08.513Z,4.50
2022-12-27T18:46:38.218Z,4.70
2022-12-27T18:49:05.313Z,5.30
2022-12-27T18:51:34.401Z,5.07
2022-12-27T18:54:02.188Z,4.50
2022-12-27T18:56:32.646Z,4.10
2022-12-27T18:59:06.134Z,3.97
2022-12-27T19:01:39.757Z,4.30
2022-12-27T19:04:22.059Z,4.80
2022-12-27T19:06:54.576Z,5.00
2022-12-27T19:09:25.863Z,4.67
2022-12-27T19:11:55.665Z,5.50
2022-12-27T19:14:24.682Z,4.63
2022-12-27T19:16:54.647Z,5.97
2022-12-27T19:19:25.237Z,5.60
2022-12-27T19:21:52.297Z,5.30
2022-12-27T19:24:33.264Z,5.20
2022-12-27T19:27:13.537Z,4.80
2022-12-27T19:29:50.747Z,4.47
2022-12-27T19:32:20.979Z,4.80
2022-12-27T19:34:50.495Z,5.70
2022-12-27T19:37:18.026Z,4.80
2022-12-27T19:39:47.614Z,4.00
2022-12-27T19:42:17.398Z,4.73
2022-12-27T19:44:44.272Z,4.20
2022-12-27T19:47:14.316Z,4.07
2022-12-27T19:49:43.003Z,4.27
2022-12-27T19:52:16.251Z,4.40
2022-12-27T19:54:43.213Z,6.53
2022-12-27T19:57:11.651Z,6.30
2022-12-27T19:59:38.766Z,5.10
2022-12-27T20:02:05.875Z,4.70
2022-12-27T20:04:34.284Z,4.53
2022-12-27T20:07:02.073Z,4.40
2022-12-27T20:09:29.323Z,5.00
2022-12-27T20:11:56.197Z,6.77
2022-12-27T20:14:23.149Z,4.80
2022-12-27T20:16:50.278Z,4.57
2022-12-27T20:19:18.124Z,4.87
2022-12-27T20:21:46.686Z,5.10
2022-12-27T20:24:14.748Z,5.40
2022-12-27T20:26:42.705Z,5.13
2022-12-27T20:29:09.801Z,5.50
2022-12-27T20:31:44.332Z,4.70
2022-12-27T20:34:12.724Z,6.10
2022-12-27T20:36:39.737Z,5.10
2022-12-27T20:39:07.922Z,4.90
2022-12-27T20:41:34.801Z,5.07
2022-12-27T20:44:01.748Z,4.97
2022-12-27T20:46:28.655Z,4.10
2022-12-27T20:48:56.471Z,4.70
2022-12-27T20:51:25.028Z,4.70
2022-12-27T20:53:55.278Z,5.10
2022-12-27T20:56:24.551Z,4.73
2022-12-27T20:58:51.463Z,4.90
2022-12-27T21:01:20.636Z,5.40
2022-12-27T21:03:48.120Z,4.80
2022-12-27T21:06:17.096Z,4.37
2022-12-27T21:08:49.019Z,4.50
2022-12-27T21:11:21.990Z,4.57
2022-12-27T21:13:50.602Z,6.00
2022-12-27T21:16:20.448Z,11.50
2022-12-27T21:18:47.401Z,14.83
2022-12-27T21:21:19.429Z,9.67
2022-12-27T21:23:47.636Z,8.77
2022-12-27T21:26:17.402Z,7.23
2022-12-27T21:28:44.903Z,5.67
2022-12-27T21:31:13.984Z,5.07
2022-12-27T21:33:40.985Z,5.73
2022-12-27T21:36:11.569Z,5.83
2022-12-27T21:38:38.402Z,4.80
2022-12-27T21:41:07.225Z,4.43
2022-12-27T21:43:34.435Z,4.20
2022-12-27T21:46:06.482Z,3.87
2022-12-27T21:48:34.946Z,4.83
2022-12-27T21:51:05.904Z,3.90
2022-12-27T21:53:32.810Z,4.20
2022-12-27T21:56:00.085Z,4.33
2022-12-27T21:58:29.726Z,4.23
2022-12-27T22:01:05.066Z,3.80
2022-12-27T22:03:38.450Z,4.00
2022-12-27T22:06:12.878Z,4.03
2022-12-27T22:08:40.018Z,4.17
2022-12-27T22:11:07.175Z,4.17
2022-12-27T22:13:34.321Z,4.00
2022-12-27T22:16:03.317Z,4.00
2022-12-27T22:18:31.457Z,4.70
2022-12-27T22:21:01.331Z,4.20
2022-12-27T22:23:30.641Z,5.07
2022-12-27T22:25:57.635Z,4.27
2022-12-27T22:28:24.883Z,4.60
2022-12-27T22:30:51.731Z,4.53
2022-12-27T22:33:18.637Z,9.50
2022-12-27T22:35:45.538Z,8.73
2022-12-27T22:38:13.767Z,6.30
2022-12-27T22:40:46.392Z,4.60
2022-12-27T22:43:14.003Z,4.50
2022-12-27T22:45:41.203Z,4.13
2022-12-27T22:48:08.447Z,4.40
2022-12-27T22:50:37.081Z,3.93
2022-12-27T22:53:03.951Z,4.10
2022-12-27T22:55:32.132Z,4.20
2022-12-27T22:57:58.957Z,4.13
2022-12-27T23:00:25.770Z,4.07
2022-12-27T23:02:52.603Z,3.93
2022-12-27T23:05:19.455Z,3.70
2022-12-27T23:08:04.690Z,3.37
2022-12-27T23:10:35.259Z,3.53
2022-12-27T23:13:02.151Z,3.80
2022-12-27T23:15:28.988Z,3.80
2022-12-27T23:17:55.852Z,3.70
2022-12-27T23:20:22.888Z,3.40
2022-12-27T23:22:49.737Z,3.70
2022-12-27T23:25:16.734Z,3.67
2022-12-27T23:27:45.021Z,3.77
2022-12-27T23:30:13.526Z,3.50
2022-12-27T23:32:40.359Z,3.90
2022-12-27T23:35:07.887Z,3.63
2022-12-27T23:37:34.868Z,4.27
2022-12-27T23:40:01.749Z,3.90
2022-12-27T23:42:28.676Z,4.03
2022-12-27T23:44:56.901Z,3.93
2022-12-27T23:47:23.759Z,4.00
2022-12-27T23:49:50.620Z,3.73
2022-12-27T23:52:18.462Z,4.20
2022-12-27T23:54:45.291Z,3.80
2022-12-27T23:57:20.059Z,3.83
2022-12-27T23:59:49.785Z,4.00
